sensor_id;sensor_type;location;lat;lon;timestamp;P1;durP1;ratioP1;P2;durP2;ratioP2
75148;SDS011;63724;47.470;19.166;2023-02-01T00:00:54;4.60;;;1.27;;
75148;SDS011;63724;47.470;19.166;2023-02-01T00:03:56;3.92;;;1.60;;
75148;SDS011;63724;47.470;19.166;2023-02-01T00:06:59;3.17;;;1.50;;
75148;SDS011;63724;47.470;19.166;2023-02-01T00:10:03;3.20;;;1.30;;
75148;SDS011;63724;47.470;19.166;2023-02-01T00:13:06;5.03;;;1.40;;
75148;SDS011;63724;47.470;19.166;2023-02-01T00:16:09;5.28;;;1.13;;
75148;SDS011;63724;47.470;19.166;2023-02-01T00:19:19;3.80;;;1.50;;
75148;SDS011;63724;47.470;19.166;2023-02-01T00:22:22;6.93;;;1.67;;
75148;SDS011;63724;47.470;19.166;2023-02-01T00:25:24;2.75;;;1.40;;
75148;SDS011;63724;47.470;19.166;2023-02-01T00:28:26;3.60;;;1.50;;
75148;SDS011;63724;47.470;19.166;2023-02-01T00:31:29;4.75;;;1.58;;
75148;SDS011;63724;47.470;19.166;2023-02-01T00:34:31;5.45;;;1.75;;
75148;SDS011;63724;47.470;19.166;2023-02-01T00:37:34;2.67;;;1.23;;
75148;SDS011;63724;47.470;19.166;2023-02-01T00:40:36;3.15;;;1.50;;
75148;SDS011;63724;47.470;19.166;2023-02-01T00:43:38;7.63;;;1.80;;
75148;SDS011;63724;47.470;19.166;2023-02-01T00:46:41;4.97;;;1.80;;
75148;SDS011;63724;47.470;19.166;2023-02-01T00:49:43;3.65;;;1.48;;
75148;SDS011;63724;47.470;19.166;2023-02-01T00:52:46;3.77;;;1.47;;
75148;SDS011;63724;47.470;19.166;2023-02-01T00:55:49;4.38;;;1.63;;
75148;SDS011;63724;47.470;19.166;2023-02-01T00:58:51;3.60;;;2.03;;
75148;SDS011;63724;47.470;19.166;2023-02-01T01:01:54;4.22;;;1.80;;
75148;SDS011;63724;47.470;19.166;2023-02-01T01:04:56;3.17;;;1.52;;
75148;SDS011;63724;47.470;19.166;2023-02-01T01:07:58;5.80;;;1.80;;
75148;SDS011;63724;47.470;19.166;2023-02-01T01:11:08;4.53;;;1.77;;
75148;SDS011;63724;47.470;19.166;2023-02-01T01:14:13;4.47;;;1.63;;
75148;SDS011;63724;47.470;19.166;2023-02-01T01:17:16;6.10;;;1.77;;
75148;SDS011;63724;47.470;19.166;2023-02-01T01:20:18;4.38;;;1.35;;
75148;SDS011;63724;47.470;19.166;2023-02-01T01:23:24;3.60;;;1.40;;
75148;SDS011;63724;47.470;19.166;2023-02-01T01:26:27;4.25;;;1.75;;
75148;SDS011;63724;47.470;19.166;2023-02-01T01:29:30;3.25;;;1.30;;
75148;SDS011;63724;47.470;19.166;2023-02-01T01:32:33;6.43;;;1.65;;
75148;SDS011;63724;47.470;19.166;2023-02-01T01:35:35;3.50;;;1.45;;
75148;SDS011;63724;47.470;19.166;2023-02-01T01:38:38;3.43;;;1.80;;
75148;SDS011;63724;47.470;19.166;2023-02-01T01:41:41;3.22;;;2.05;;
75148;SDS011;63724;47.470;19.166;2023-02-01T01:48:05;4.55;;;1.60;;
75148;SDS011;63724;47.470;19.166;2023-02-01T01:51:13;3.08;;;1.50;;
75148;SDS011;63724;47.470;19.166;2023-02-01T01:54:21;5.70;;;1.73;;
75148;SDS011;63724;47.470;19.166;2023-02-01T01:57:27;4.03;;;1.48;;
75148;SDS011;63724;47.470;19.166;2023-02-01T02:00:35;4.35;;;2.00;;
75148;SDS011;63724;47.470;19.166;2023-02-01T02:03:47;4.03;;;1.70;;
75148;SDS011;63724;47.470;19.166;2023-02-01T02:06:51;4.63;;;1.75;;
75148;SDS011;63724;47.470;19.166;2023-02-01T02:09:58;3.33;;;1.90;;
75148;SDS011;63724;47.470;19.166;2023-02-01T02:13:02;3.38;;;1.88;;
75148;SDS011;63724;47.470;19.166;2023-02-01T02:16:18;5.78;;;1.42;;
75148;SDS011;63724;47.470;19.166;2023-02-01T02:36:16;4.57;;;1.50;;
75148;SDS011;63724;47.470;19.166;2023-02-01T02:46:30;5.22;;;1.80;;
75148;SDS011;63724;47.470;19.166;2023-02-01T02:50:15;2.70;;;1.50;;
75148;SDS011;63724;47.470;19.166;2023-02-01T02:53:45;2.70;;;1.80;;
75148;SDS011;63724;47.470;19.166;2023-02-01T02:57:10;2.85;;;1.45;;
75148;SDS011;63724;47.470;19.166;2023-02-01T03:00:34;3.77;;;1.83;;
75148;SDS011;63724;47.470;19.166;2023-02-01T03:03:57;3.47;;;2.05;;
75148;SDS011;63724;47.470;19.166;2023-02-01T03:14:09;3.88;;;1.83;;
75148;SDS011;63724;47.470;19.166;2023-02-01T03:17:18;3.70;;;1.70;;
75148;SDS011;63724;47.470;19.166;2023-02-01T03:20:25;4.03;;;1.85;;
75148;SDS011;63724;47.470;19.166;2023-02-01T03:23:28;2.97;;;1.60;;
75148;SDS011;63724;47.470;19.166;2023-02-01T03:26:33;3.38;;;1.80;;
75148;SDS011;63724;47.470;19.166;2023-02-01T03:33:23;2.60;;;1.50;;
75148;SDS011;63724;47.470;19.166;2023-02-01T03:36:29;2.92;;;1.67;;
75148;SDS011;63724;47.470;19.166;2023-02-01T03:42:43;3.25;;;1.60;;
75148;SDS011;63724;47.470;19.166;2023-02-01T03:45:49;3.80;;;1.88;;
75148;SDS011;63724;47.470;19.166;2023-02-01T03:48:54;2.73;;;1.80;;
75148;SDS011;63724;47.470;19.166;2023-02-01T03:51:59;3.15;;;1.55;;
75148;SDS011;63724;47.470;19.166;2023-02-01T03:55:02;2.65;;;1.60;;
75148;SDS011;63724;47.470;19.166;2023-02-01T03:58:13;6.75;;;2.08;;
75148;SDS011;63724;47.470;19.166;2023-02-01T04:01:33;1.65;;;1.30;;
75148;SDS011;63724;47.470;19.166;2023-02-01T04:04:35;2.07;;;1.30;;
75148;SDS011;63724;47.470;19.166;2023-02-01T04:07:39;1.20;;;1.00;;
75148;SDS011;63724;47.470;19.166;2023-02-01T04:10:41;1.00;;;0.82;;
75148;SDS011;63724;47.470;19.166;2023-02-01T04:13:44;1.92;;;1.38;;
75148;SDS011;63724;47.470;19.166;2023-02-01T04:16:46;1.60;;;1.00;;
75148;SDS011;63724;47.470;19.166;2023-02-01T04:19:49;1.53;;;0.90;;
75148;SDS011;63724;47.470;19.166;2023-02-01T04:22:51;1.55;;;1.20;;
75148;SDS011;63724;47.470;19.166;2023-02-01T04:25:53;3.40;;;1.10;;
75148;SDS011;63724;47.470;19.166;2023-02-01T04:28:56;2.35;;;0.98;;
75148;SDS011;63724;47.470;19.166;2023-02-01T04:31:59;1.92;;;1.10;;
75148;SDS011;63724;47.470;19.166;2023-02-01T04:35:01;1.30;;;0.90;;
75148;SDS011;63724;47.470;19.166;2023-02-01T04:38:04;5.13;;;2.10;;
75148;SDS011;63724;47.470;19.166;2023-02-01T04:41:06;4.30;;;1.38;;
75148;SDS011;63724;47.470;19.166;2023-02-01T04:44:18;1.73;;;1.30;;
75148;SDS011;63724;47.470;19.166;2023-02-01T04:47:26;1.50;;;1.15;;
75148;SDS011;63724;47.470;19.166;2023-02-01T04:50:30;1.20;;;1.03;;
75148;SDS011;63724;47.470;19.166;2023-02-01T04:53:33;1.58;;;1.10;;
75148;SDS011;63724;47.470;19.166;2023-02-01T04:56:35;1.65;;;1.00;;
75148;SDS011;63724;47.470;19.166;2023-02-01T04:59:37;1.42;;;0.80;;
75148;SDS011;63724;47.470;19.166;2023-02-01T05:02:44;2.17;;;1.02;;
75148;SDS011;63724;47.470;19.166;2023-02-01T05:05:47;4.57;;;1.40;;
75148;SDS011;63724;47.470;19.166;2023-02-01T05:08:50;2.08;;;1.10;;
75148;SDS011;63724;47.470;19.166;2023-02-01T05:11:53;2.65;;;1.27;;
75148;SDS011;63724;47.470;19.166;2023-02-01T05:15:14;3.33;;;1.98;;
75148;SDS011;63724;47.470;19.166;2023-02-01T05:18:16;13.50;;;5.30;;
75148;SDS011;63724;47.470;19.166;2023-02-01T05:24:43;1.33;;;1.10;;
75148;SDS011;63724;47.470;19.166;2023-02-01T05:27:46;2.03;;;1.27;;
75148;SDS011;63724;47.470;19.166;2023-02-01T05:30:48;3.00;;;1.30;;
75148;SDS011;63724;47.470;19.166;2023-02-01T05:33:50;2.10;;;1.20;;
75148;SDS011;63724;47.470;19.166;2023-02-01T05:36:53;1.70;;;1.17;;
75148;SDS011;63724;47.470;19.166;2023-02-01T05:39:55;3.38;;;1.45;;
75148;SDS011;63724;47.470;19.166;2023-02-01T05:42:57;2.78;;;1.63;;
75148;SDS011;63724;47.470;19.166;2023-02-01T05:46:00;3.00;;;1.60;;
75148;SDS011;63724;47.470;19.166;2023-02-01T05:49:03;3.97;;;1.50;;
75148;SDS011;63724;47.470;19.166;2023-02-01T05:52:05;2.53;;;1.80;;
75148;SDS011;63724;47.470;19.166;2023-02-01T05:55:08;2.70;;;1.65;;
75148;SDS011;63724;47.470;19.166;2023-02-01T05:58:10;4.18;;;1.83;;
75148;SDS011;63724;47.470;19.166;2023-02-01T06:01:14;3.67;;;1.83;;
75148;SDS011;63724;47.470;19.166;2023-02-01T06:04:16;4.60;;;1.92;;
75148;SDS011;63724;47.470;19.166;2023-02-01T06:07:18;4.77;;;1.70;;
75148;SDS011;63724;47.470;19.166;2023-02-01T06:10:22;6.00;;;1.50;;
75148;SDS011;63724;47.470;19.166;2023-02-01T06:13:25;12.35;;;1.98;;
75148;SDS011;63724;47.470;19.166;2023-02-01T06:16:28;5.60;;;1.75;;
75148;SDS011;63724;47.470;19.166;2023-02-01T06:19:31;1.77;;;1.40;;
75148;SDS011;63724;47.470;19.166;2023-02-01T06:32:58;6.15;;;1.77;;
75148;SDS011;63724;47.470;19.166;2023-02-01T06:36:01;1.50;;;1.25;;
75148;SDS011;63724;47.470;19.166;2023-02-01T06:39:05;2.35;;;1.50;;
75148;SDS011;63724;47.470;19.166;2023-02-01T06:42:08;1.90;;;1.23;;
75148;SDS011;63724;47.470;19.166;2023-02-01T06:45:13;4.82;;;2.03;;
75148;SDS011;63724;47.470;19.166;2023-02-01T06:48:17;2.35;;;1.55;;
75148;SDS011;63724;47.470;19.166;2023-02-01T06:51:29;6.15;;;1.92;;
75148;SDS011;63724;47.470;19.166;2023-02-01T06:54:40;2.75;;;1.75;;
75148;SDS011;63724;47.470;19.166;2023-02-01T06:57:43;1.73;;;1.23;;
75148;SDS011;63724;47.470;19.166;2023-02-01T07:00:45;2.67;;;1.70;;
75148;SDS011;63724;47.470;19.166;2023-02-01T07:03:52;2.95;;;1.42;;
75148;SDS011;63724;47.470;19.166;2023-02-01T07:06:56;6.82;;;2.80;;
75148;SDS011;63724;47.470;19.166;2023-02-01T07:09:58;7.05;;;2.90;;
75148;SDS011;63724;47.470;19.166;2023-02-01T07:13:01;2.93;;;1.53;;
75148;SDS011;63724;47.470;19.166;2023-02-01T07:16:08;2.70;;;1.70;;
75148;SDS011;63724;47.470;19.166;2023-02-01T07:19:13;3.58;;;1.30;;
75148;SDS011;63724;47.470;19.166;2023-02-01T07:22:16;3.35;;;1.67;;
75148;SDS011;63724;47.470;19.166;2023-02-01T07:25:19;3.00;;;1.70;;
75148;SDS011;63724;47.470;19.166;2023-02-01T07:28:21;3.80;;;1.70;;
75148;SDS011;63724;47.470;19.166;2023-02-01T07:31:24;5.35;;;2.03;;
75148;SDS011;63724;47.470;19.166;2023-02-01T07:34:28;4.40;;;1.95;;
75148;SDS011;63724;47.470;19.166;2023-02-01T07:37:32;7.22;;;2.08;;
75148;SDS011;63724;47.470;19.166;2023-02-01T07:40:36;3.67;;;1.85;;
75148;SDS011;63724;47.470;19.166;2023-02-01T07:43:39;2.77;;;1.60;;
75148;SDS011;63724;47.470;19.166;2023-02-01T07:46:44;2.15;;;1.52;;
75148;SDS011;63724;47.470;19.166;2023-02-01T07:49:49;3.10;;;1.73;;
75148;SDS011;63724;47.470;19.166;2023-02-01T07:52:51;3.60;;;1.42;;
75148;SDS011;63724;47.470;19.166;2023-02-01T07:55:55;4.10;;;1.48;;
75148;SDS011;63724;47.470;19.166;2023-02-01T07:58:58;7.77;;;2.33;;
75148;SDS011;63724;47.470;19.166;2023-02-01T08:02:03;1.50;;;0.90;;
75148;SDS011;63724;47.470;19.166;2023-02-01T08:05:05;3.50;;;1.20;;
75148;SDS011;63724;47.470;19.166;2023-02-01T08:08:11;3.42;;;1.33;;
75148;SDS011;63724;47.470;19.166;2023-02-01T08:11:15;4.25;;;1.23;;
75148;SDS011;63724;47.470;19.166;2023-02-01T08:14:17;1.40;;;0.80;;
75148;SDS011;63724;47.470;19.166;2023-02-01T08:17:20;2.80;;;0.80;;
75148;SDS011;63724;47.470;19.166;2023-02-01T08:20:22;2.08;;;1.00;;
75148;SDS011;63724;47.470;19.166;2023-02-01T08:23:25;4.03;;;1.00;;
75148;SDS011;63724;47.470;19.166;2023-02-01T08:26:30;3.10;;;1.10;;
75148;SDS011;63724;47.470;19.166;2023-02-01T08:29:34;5.47;;;1.43;;
75148;SDS011;63724;47.470;19.166;2023-02-01T08:32:37;3.90;;;1.10;;
75148;SDS011;63724;47.470;19.166;2023-02-01T08:35:39;2.53;;;1.10;;
75148;SDS011;63724;47.470;19.166;2023-02-01T08:38:45;3.33;;;0.98;;
75148;SDS011;63724;47.470;19.166;2023-02-01T08:41:47;4.13;;;1.20;;
75148;SDS011;63724;47.470;19.166;2023-02-01T08:45:10;3.50;;;1.20;;
75148;SDS011;63724;47.470;19.166;2023-02-01T08:48:12;2.35;;;1.00;;
75148;SDS011;63724;47.470;19.166;2023-02-01T08:51:16;6.43;;;1.38;;
75148;SDS011;63724;47.470;19.166;2023-02-01T08:54:24;3.00;;;0.98;;
75148;SDS011;63724;47.470;19.166;2023-02-01T08:57:27;1.23;;;0.63;;
75148;SDS011;63724;47.470;19.166;2023-02-01T09:00:30;3.90;;;1.07;;
75148;SDS011;63724;47.470;19.166;2023-02-01T09:03:32;2.92;;;1.00;;
75148;SDS011;63724;47.470;19.166;2023-02-01T09:06:35;3.45;;;1.10;;
75148;SDS011;63724;47.470;19.166;2023-02-01T09:09:37;1.85;;;0.80;;
75148;SDS011;63724;47.470;19.166;2023-02-01T09:12:40;2.72;;;1.10;;
75148;SDS011;63724;47.470;19.166;2023-02-01T09:15:42;4.70;;;1.20;;
75148;SDS011;63724;47.470;19.166;2023-02-01T09:18:45;2.08;;;1.10;;
75148;SDS011;63724;47.470;19.166;2023-02-01T09:22:07;3.72;;;1.08;;
75148;SDS011;63724;47.470;19.166;2023-02-01T09:25:12;5.63;;;1.35;;
75148;SDS011;63724;47.470;19.166;2023-02-01T09:28:19;2.90;;;1.10;;
75148;SDS011;63724;47.470;19.166;2023-02-01T09:31:21;2.57;;;1.20;;
75148;SDS011;63724;47.470;19.166;2023-02-01T09:34:24;1.98;;;1.30;;
75148;SDS011;63724;47.470;19.166;2023-02-01T09:37:26;2.22;;;0.90;;
75148;SDS011;63724;47.470;19.166;2023-02-01T09:40:30;8.30;;;3.25;;
75148;SDS011;63724;47.470;19.166;2023-02-01T09:43:38;2.35;;;1.02;;
75148;SDS011;63724;47.470;19.166;2023-02-01T09:46:48;1.50;;;0.80;;
75148;SDS011;63724;47.470;19.166;2023-02-01T09:50:12;3.33;;;0.80;;
75148;SDS011;63724;47.470;19.166;2023-02-01T09:53:25;1.33;;;0.63;;
75148;SDS011;63724;47.470;19.166;2023-02-01T09:56:39;1.42;;;0.60;;
75148;SDS011;63724;47.470;19.166;2023-02-01T09:59:46;3.97;;;1.17;;
75148;SDS011;63724;47.470;19.166;2023-02-01T10:02:51;3.43;;;1.00;;
75148;SDS011;63724;47.470;19.166;2023-02-01T10:16:47;2.17;;;1.40;;
75148;SDS011;63724;47.470;19.166;2023-02-01T10:20:07;2.40;;;0.90;;
75148;SDS011;63724;47.470;19.166;2023-02-01T10:26:37;3.50;;;1.35;;
75148;SDS011;63724;47.470;19.166;2023-02-01T10:29:44;2.55;;;1.42;;
75148;SDS011;63724;47.470;19.166;2023-02-01T10:32:49;1.92;;;1.25;;
75148;SDS011;63724;47.470;19.166;2023-02-01T10:36:13;1.70;;;1.27;;
75148;SDS011;63724;47.470;19.166;2023-02-01T10:39:18;1.88;;;1.00;;
75148;SDS011;63724;47.470;19.166;2023-02-01T10:42:27;3.85;;;1.17;;
75148;SDS011;63724;47.470;19.166;2023-02-01T10:45:31;2.25;;;1.40;;
75148;SDS011;63724;47.470;19.166;2023-02-01T10:48:40;4.05;;;1.40;;
75148;SDS011;63724;47.470;19.166;2023-02-01T10:51:44;5.13;;;1.53;;
75148;SDS011;63724;47.470;19.166;2023-02-01T10:54:50;2.38;;;1.42;;
75148;SDS011;63724;47.470;19.166;2023-02-01T10:57:57;2.22;;;1.60;;
75148;SDS011;63724;47.470;19.166;2023-02-01T11:01:06;1.88;;;1.35;;
75148;SDS011;63724;47.470;19.166;2023-02-01T11:04:10;7.22;;;1.80;;
75148;SDS011;63724;47.470;19.166;2023-02-01T11:07:23;1.70;;;1.37;;
75148;SDS011;63724;47.470;19.166;2023-02-01T11:10:39;5.60;;;2.17;;
75148;SDS011;63724;47.470;19.166;2023-02-01T11:13:42;5.25;;;2.03;;
75148;SDS011;63724;47.470;19.166;2023-02-01T11:16:48;2.55;;;1.50;;
75148;SDS011;63724;47.470;19.166;2023-02-01T11:19:59;3.22;;;1.90;;
75148;SDS011;63724;47.470;19.166;2023-02-01T11:23:02;2.90;;;1.37;;
75148;SDS011;63724;47.470;19.166;2023-02-01T11:26:15;2.97;;;1.50;;
75148;SDS011;63724;47.470;19.166;2023-02-01T11:29:25;1.58;;;1.48;;
75148;SDS011;63724;47.470;19.166;2023-02-01T11:32:33;5.03;;;1.95;;
75148;SDS011;63724;47.470;19.166;2023-02-01T11:35:38;3.22;;;1.50;;
75148;SDS011;63724;47.470;19.166;2023-02-01T11:38:46;2.40;;;1.90;;
75148;SDS011;63724;47.470;19.166;2023-02-01T11:45:20;2.30;;;1.85;;
75148;SDS011;63724;47.470;19.166;2023-02-01T11:48:35;3.47;;;2.25;;
75148;SDS011;63724;47.470;19.166;2023-02-01T11:51:42;3.13;;;2.10;;
75148;SDS011;63724;47.470;19.166;2023-02-01T11:58:22;5.65;;;2.53;;
75148;SDS011;63724;47.470;19.166;2023-02-01T12:11:58;4.10;;;2.40;;
75148;SDS011;63724;47.470;19.166;2023-02-01T12:26:23;4.72;;;2.83;;
75148;SDS011;63724;47.470;19.166;2023-02-01T12:44:16;5.75;;;2.10;;
75148;SDS011;63724;47.470;19.166;2023-02-01T12:47:32;8.03;;;2.30;;
75148;SDS011;63724;47.470;19.166;2023-02-01T12:50:47;14.25;;;3.13;;
75148;SDS011;63724;47.470;19.166;2023-02-01T12:57:31;4.15;;;2.10;;
75148;SDS011;63724;47.470;19.166;2023-02-01T13:00:43;3.20;;;1.80;;
75148;SDS011;63724;47.470;19.166;2023-02-01T13:07:34;3.72;;;1.95;;
75148;SDS011;63724;47.470;19.166;2023-02-01T13:10:53;3.95;;;1.90;;
75148;SDS011;63724;47.470;19.166;2023-02-01T13:14:03;17.13;;;3.33;;
75148;SDS011;63724;47.470;19.166;2023-02-01T13:23:47;3.63;;;2.15;;
75148;SDS011;63724;47.470;19.166;2023-02-01T13:26:53;2.42;;;1.75;;
75148;SDS011;63724;47.470;19.166;2023-02-01T13:40:41;3.33;;;1.90;;
75148;SDS011;63724;47.470;19.166;2023-02-01T13:43:47;5.97;;;2.15;;
75148;SDS011;63724;47.470;19.166;2023-02-01T13:46:51;3.75;;;2.13;;
75148;SDS011;63724;47.470;19.166;2023-02-01T13:49:59;9.05;;;2.70;;
75148;SDS011;63724;47.470;19.166;2023-02-01T13:56:15;5.93;;;2.47;;
75148;SDS011;63724;47.470;19.166;2023-02-01T14:06:03;5.28;;;2.38;;
75148;SDS011;63724;47.470;19.166;2023-02-01T14:09:30;3.93;;;2.27;;
75148;SDS011;63724;47.470;19.166;2023-02-01T14:12:43;2.80;;;1.85;;
75148;SDS011;63724;47.470;19.166;2023-02-01T14:19:07;3.83;;;2.05;;
75148;SDS011;63724;47.470;19.166;2023-02-01T14:25:18;4.20;;;2.40;;
75148;SDS011;63724;47.470;19.166;2023-02-01T14:28:26;3.85;;;2.08;;
75148;SDS011;63724;47.470;19.166;2023-02-01T14:31:35;2.85;;;2.05;;
75148;SDS011;63724;47.470;19.166;2023-02-01T14:34:52;5.93;;;1.98;;
75148;SDS011;63724;47.470;19.166;2023-02-01T14:38:00;8.25;;;1.60;;
75148;SDS011;63724;47.470;19.166;2023-02-01T14:41:18;3.07;;;1.20;;
75148;SDS011;63724;47.470;19.166;2023-02-01T14:44:33;3.58;;;1.15;;
75148;SDS011;63724;47.470;19.166;2023-02-01T14:47:36;1.50;;;0.82;;
75148;SDS011;63724;47.470;19.166;2023-02-01T14:50:48;7.03;;;1.90;;
75148;SDS011;63724;47.470;19.166;2023-02-01T14:53:51;3.45;;;1.13;;
75148;SDS011;63724;47.470;19.166;2023-02-01T14:56:54;2.83;;;1.30;;
75148;SDS011;63724;47.470;19.166;2023-02-01T15:00:01;3.67;;;1.88;;
75148;SDS011;63724;47.470;19.166;2023-02-01T15:03:16;3.17;;;1.38;;
75148;SDS011;63724;47.470;19.166;2023-02-01T15:06:25;5.63;;;1.35;;
75148;SDS011;63724;47.470;19.166;2023-02-01T15:12:41;3.03;;;1.00;;
75148;SDS011;63724;47.470;19.166;2023-02-01T15:15:59;2.75;;;1.42;;
75148;SDS011;63724;47.470;19.166;2023-02-01T15:19:27;4.28;;;1.88;;
75148;SDS011;63724;47.470;19.166;2023-02-01T15:22:31;4.35;;;2.35;;
75148;SDS011;63724;47.470;19.166;2023-02-01T15:25:34;4.53;;;2.15;;
75148;SDS011;63724;47.470;19.166;2023-02-01T15:28:38;3.60;;;1.70;;
75148;SDS011;63724;47.470;19.166;2023-02-01T15:31:42;4.00;;;1.50;;
75148;SDS011;63724;47.470;19.166;2023-02-01T15:34:48;3.97;;;1.23;;
75148;SDS011;63724;47.470;19.166;2023-02-01T15:37:51;2.42;;;0.90;;
75148;SDS011;63724;47.470;19.166;2023-02-01T15:47:25;2.10;;;0.60;;
75148;SDS011;63724;47.470;19.166;2023-02-01T15:50:30;2.20;;;0.90;;
75148;SDS011;63724;47.470;19.166;2023-02-01T15:53:33;3.28;;;1.20;;
75148;SDS011;63724;47.470;19.166;2023-02-01T15:56:37;2.83;;;1.25;;
75148;SDS011;63724;47.470;19.166;2023-02-01T15:59:41;6.70;;;2.17;;
75148;SDS011;63724;47.470;19.166;2023-02-01T16:02:53;3.38;;;0.93;;
75148;SDS011;63724;47.470;19.166;2023-02-01T16:06:00;2.03;;;0.68;;
75148;SDS011;63724;47.470;19.166;2023-02-01T16:09:12;3.25;;;0.77;;
75148;SDS011;63724;47.470;19.166;2023-02-01T16:12:33;2.17;;;0.60;;
75148;SDS011;63724;47.470;19.166;2023-02-01T16:15:44;6.13;;;0.93;;
75148;SDS011;63724;47.470;19.166;2023-02-01T16:18:47;10.25;;;1.23;;
75148;SDS011;63724;47.470;19.166;2023-02-01T16:21:49;1.38;;;0.52;;
75148;SDS011;63724;47.470;19.166;2023-02-01T16:24:52;2.10;;;0.40;;
75148;SDS011;63724;47.470;19.166;2023-02-01T16:27:55;1.25;;;0.52;;
75148;SDS011;63724;47.470;19.166;2023-02-01T16:30:58;6.13;;;0.63;;
75148;SDS011;63724;47.470;19.166;2023-02-01T16:34:01;3.65;;;0.60;;
75148;SDS011;63724;47.470;19.166;2023-02-01T16:37:04;1.67;;;0.52;;
75148;SDS011;63724;47.470;19.166;2023-02-01T16:40:12;1.40;;;0.50;;
75148;SDS011;63724;47.470;19.166;2023-02-01T16:43:20;2.35;;;0.60;;
75148;SDS011;63724;47.470;19.166;2023-02-01T16:46:24;2.33;;;0.60;;
75148;SDS011;63724;47.470;19.166;2023-02-01T16:49:28;1.90;;;0.52;;
75148;SDS011;63724;47.470;19.166;2023-02-01T16:52:30;1.88;;;0.70;;
75148;SDS011;63724;47.470;19.166;2023-02-01T16:55:34;4.07;;;0.95;;
75148;SDS011;63724;47.470;19.166;2023-02-01T16:58:36;3.38;;;0.73;;
75148;SDS011;63724;47.470;19.166;2023-02-01T17:01:41;1.87;;;0.80;;
75148;SDS011;63724;47.470;19.166;2023-02-01T17:04:44;6.15;;;1.10;;
75148;SDS011;63724;47.470;19.166;2023-02-01T17:07:47;1.67;;;0.70;;
75148;SDS011;63724;47.470;19.166;2023-02-01T17:10:50;3.10;;;1.30;;
75148;SDS011;63724;47.470;19.166;2023-02-01T17:13:53;4.20;;;2.35;;
75148;SDS011;63724;47.470;19.166;2023-02-01T17:16:55;3.43;;;1.50;;
75148;SDS011;63724;47.470;19.166;2023-02-01T17:20:00;4.53;;;1.13;;
75148;SDS011;63724;47.470;19.166;2023-02-01T17:23:02;3.28;;;0.93;;
75148;SDS011;63724;47.470;19.166;2023-02-01T17:26:08;2.13;;;1.20;;
75148;SDS011;63724;47.470;19.166;2023-02-01T17:29:12;4.30;;;1.77;;
75148;SDS011;63724;47.470;19.166;2023-02-01T17:32:18;4.67;;;2.20;;
75148;SDS011;63724;47.470;19.166;2023-02-01T17:35:24;4.28;;;1.40;;
75148;SDS011;63724;47.470;19.166;2023-02-01T17:38:29;2.13;;;1.13;;
75148;SDS011;63724;47.470;19.166;2023-02-01T17:41:31;2.63;;;1.50;;
75148;SDS011;63724;47.470;19.166;2023-02-01T17:44:34;5.25;;;2.47;;
75148;SDS011;63724;47.470;19.166;2023-02-01T17:47:37;5.30;;;2.03;;
75148;SDS011;63724;47.470;19.166;2023-02-01T17:50:39;4.03;;;1.38;;
75148;SDS011;63724;47.470;19.166;2023-02-01T17:53:42;2.75;;;1.27;;
75148;SDS011;63724;47.470;19.166;2023-02-01T17:56:45;3.10;;;1.42;;
75148;SDS011;63724;47.470;19.166;2023-02-01T17:59:50;2.80;;;1.75;;
75148;SDS011;63724;47.470;19.166;2023-02-01T18:02:52;2.67;;;1.20;;
75148;SDS011;63724;47.470;19.166;2023-02-01T18:05:56;4.85;;;1.42;;
75148;SDS011;63724;47.470;19.166;2023-02-01T18:08:58;3.50;;;1.50;;
75148;SDS011;63724;47.470;19.166;2023-02-01T18:12:01;2.53;;;1.33;;
75148;SDS011;63724;47.470;19.166;2023-02-01T18:15:13;2.75;;;1.52;;
75148;SDS011;63724;47.470;19.166;2023-02-01T18:18:17;3.93;;;1.60;;
75148;SDS011;63724;47.470;19.166;2023-02-01T18:21:20;2.17;;;1.20;;
75148;SDS011;63724;47.470;19.166;2023-02-01T18:24:23;4.25;;;1.80;;
75148;SDS011;63724;47.470;19.166;2023-02-01T18:27:28;5.70;;;2.13;;
75148;SDS011;63724;47.470;19.166;2023-02-01T18:30:32;5.30;;;2.00;;
75148;SDS011;63724;47.470;19.166;2023-02-01T18:33:35;4.13;;;1.90;;
75148;SDS011;63724;47.470;19.166;2023-02-01T18:36:37;3.80;;;2.13;;
75148;SDS011;63724;47.470;19.166;2023-02-01T18:39:40;5.13;;;2.47;;
75148;SDS011;63724;47.470;19.166;2023-02-01T18:42:42;6.30;;;2.92;;
75148;SDS011;63724;47.470;19.166;2023-02-01T18:45:45;3.17;;;2.05;;
75148;SDS011;63724;47.470;19.166;2023-02-01T18:48:48;5.23;;;2.20;;
75148;SDS011;63724;47.470;19.166;2023-02-01T18:51:51;4.80;;;2.10;;
75148;SDS011;63724;47.470;19.166;2023-02-01T18:54:53;2.60;;;1.42;;
75148;SDS011;63724;47.470;19.166;2023-02-01T18:58:02;3.65;;;1.38;;
75148;SDS011;63724;47.470;19.166;2023-02-01T19:01:06;1.98;;;0.70;;
75148;SDS011;63724;47.470;19.166;2023-02-01T19:04:15;2.70;;;0.73;;
75148;SDS011;63724;47.470;19.166;2023-02-01T19:07:27;1.15;;;0.55;;
75148;SDS011;63724;47.470;19.166;2023-02-01T19:10:29;2.83;;;1.00;;
75148;SDS011;63724;47.470;19.166;2023-02-01T19:13:34;0.85;;;0.57;;
75148;SDS011;63724;47.470;19.166;2023-02-01T19:16:37;1.27;;;0.70;;
75148;SDS011;63724;47.470;19.166;2023-02-01T19:19:41;1.07;;;0.47;;
75148;SDS011;63724;47.470;19.166;2023-02-01T19:22:45;2.17;;;0.88;;
75148;SDS011;63724;47.470;19.166;2023-02-01T19:25:48;1.50;;;0.70;;
75148;SDS011;63724;47.470;19.166;2023-02-01T19:28:53;3.22;;;1.20;;
75148;SDS011;63724;47.470;19.166;2023-02-01T19:31:59;3.42;;;0.85;;
75148;SDS011;63724;47.470;19.166;2023-02-01T19:35:01;4.73;;;1.20;;
75148;SDS011;63724;47.470;19.166;2023-02-01T19:38:04;2.70;;;0.68;;
75148;SDS011;63724;47.470;19.166;2023-02-01T19:41:07;2.45;;;0.70;;
75148;SDS011;63724;47.470;19.166;2023-02-01T19:44:09;1.23;;;0.60;;
75148;SDS011;63724;47.470;19.166;2023-02-01T19:47:11;2.25;;;0.50;;
75148;SDS011;63724;47.470;19.166;2023-02-01T19:50:15;0.47;;;0.40;;
75148;SDS011;63724;47.470;19.166;2023-02-01T19:53:20;0.60;;;0.40;;
75148;SDS011;63724;47.470;19.166;2023-02-01T19:56:25;0.88;;;0.40;;
75148;SDS011;63724;47.470;19.166;2023-02-01T19:59:28;2.22;;;0.43;;
75148;SDS011;63724;47.470;19.166;2023-02-01T20:02:30;3.58;;;0.50;;
75148;SDS011;63724;47.470;19.166;2023-02-01T20:05:33;1.77;;;0.53;;
75148;SDS011;63724;47.470;19.166;2023-02-01T20:08:36;1.80;;;0.40;;
75148;SDS011;63724;47.470;19.166;2023-02-01T20:11:38;1.13;;;0.45;;
75148;SDS011;63724;47.470;19.166;2023-02-01T20:14:40;2.00;;;0.60;;
75148;SDS011;63724;47.470;19.166;2023-02-01T20:17:43;1.58;;;0.55;;
75148;SDS011;63724;47.470;19.166;2023-02-01T20:20:46;2.63;;;0.67;;
75148;SDS011;63724;47.470;19.166;2023-02-01T20:23:48;1.92;;;0.52;;
75148;SDS011;63724;47.470;19.166;2023-02-01T20:26:51;2.45;;;0.50;;
75148;SDS011;63724;47.470;19.166;2023-02-01T20:29:53;1.52;;;0.60;;
75148;SDS011;63724;47.470;19.166;2023-02-01T20:32:55;2.92;;;0.77;;
75148;SDS011;63724;47.470;19.166;2023-02-01T20:35:58;1.90;;;0.67;;
75148;SDS011;63724;47.470;19.166;2023-02-01T20:39:00;1.08;;;0.63;;
75148;SDS011;63724;47.470;19.166;2023-02-01T20:42:03;4.00;;;0.90;;
75148;SDS011;63724;47.470;19.166;2023-02-01T20:45:06;2.20;;;0.60;;
75148;SDS011;63724;47.470;19.166;2023-02-01T20:48:09;3.20;;;0.80;;
75148;SDS011;63724;47.470;19.166;2023-02-01T20:51:13;2.67;;;0.90;;
75148;SDS011;63724;47.470;19.166;2023-02-01T20:54:16;1.13;;;0.80;;
75148;SDS011;63724;47.470;19.166;2023-02-01T20:57:19;2.03;;;0.80;;
75148;SDS011;63724;47.470;19.166;2023-02-01T21:00:21;4.03;;;1.10;;
75148;SDS011;63724;47.470;19.166;2023-02-01T21:03:24;3.40;;;0.70;;